Time;durP1;ratioP1;P1;durP2;ratioP2;P2;SDS_P1;SDS_P2;PMS_P1;PMS_P2;Temp;Humidity;BMP_temperature;BMP_pressure;BME280_temperature;BME280_humidity;BME280_pressure;Samples;Min_cycle;Max_cycle;Signal;HPM_P1;HPM_P2
2023/09/13 00:01:31;;;;;;;46.42;26.80;;;;;;;;;;5034754;28;20092;-59
2023/09/13 00:03:58;;;;;;;46.60;25.98;;;;;;;;;;5033667;28;20025;-59
2023/09/13 00:06:24;;;;;;;45.42;25.80;;;;;;;;;;5034349;28;20048;-59
2023/09/13 00:08:49;;;;;;;47.90;26.00;;;;;;;;;;5034573;28;20033;-59
2023/09/13 00:11:15;;;;;;;43.88;25.25;;;;;;;;;;5034140;28;20133;-59
2023/09/13 00:13:41;;;;;;;48.00;26.52;;;;;;;;;;5034526;28;20466;-59
2023/09/13 00:16:07;;;;;;;49.25;28.00;;;;;;;;;;5033599;28;20052;-59
2023/09/13 00:18:33;;;;;;;53.17;28.05;;;;;;;;;;5034279;28;20033;-59
2023/09/13 00:20:58;;;;;;;50.15;28.05;;;;;;;;;;5034075;28;20377;-60
2023/09/13 00:23:24;;;;;;;53.28;27.95;;;;;;;;;;5033997;28;20044;-60
2023/09/13 00:25:49;;;;;;;44.65;26.42;;;;;;;;;;5034270;28;20026;-59
2023/09/13 00:28:15;;;;;;;52.13;26.10;;;;;;;;;;5033454;28;20457;-59
2023/09/13 00:30:40;;;;;;;50.90;27.20;;;;;;;;;;5034192;28;20037;-59
2023/09/13 00:33:05;;;;;;;50.67;25.67;;;;;;;;;;5032190;28;20033;-60
2023/09/13 00:35:31;;;;;;;42.33;24.85;;;;;;;;;;5034332;28;20044;-59
2023/09/13 00:37:56;;;;;;;45.67;25.35;;;;;;;;;;5033886;28;20096;-59
2023/09/13 00:40:21;;;;;;;46.22;24.95;;;;;;;;;;5033321;28;20033;-59
2023/09/13 00:42:47;;;;;;;45.42;25.30;;;;;;;;;;5033183;28;20064;-59
2023/09/13 00:45:13;;;;;;;46.05;25.25;;;;;;;;;;5033225;28;20374;-59
2023/09/13 00:47:40;;;;;;;41.85;23.92;;;;;;;;;;5033695;28;20445;-59
2023/09/13 00:50:08;;;;;;;45.72;24.65;;;;;;;;;;5048109;28;20026;-59
2023/09/13 00:52:34;;;;;;;48.95;25.77;;;;;;;;;;5032438;28;20041;-59
2023/09/13 00:55:00;;;;;;;45.17;24.80;;;;;;;;;;5033046;28;20060;-60
2023/09/13 00:57:25;;;;;;;44.35;26.27;;;;;;;;;;5033854;28;20029;-59
2023/09/13 00:59:54;;;;;;;41.17;24.88;;;;;;;;;;5033293;28;20424;-59
2023/09/13 01:02:19;;;;;;;39.58;24.77;;;;;;;;;;5032909;28;20404;-59
2023/09/13 01:04:45;;;;;;;44.60;25.15;;;;;;;;;;5033410;28;20029;-60
2023/09/13 01:07:10;;;;;;;43.95;24.13;;;;;;;;;;5032716;28;20063;-59
2023/09/13 01:09:36;;;;;;;42.38;25.48;;;;;;;;;;5033486;28;20072;-59
2023/09/13 01:12:01;;;;;;;46.38;25.38;;;;;;;;;;5031453;28;20132;-57
2023/09/13 01:14:27;;;;;;;45.47;25.70;;;;;;;;;;5033630;28;20029;-60
2023/09/13 01:17:03;;;;;;;46.45;25.50;;;;;;;;;;5033041;28;20482;-60
2023/09/13 01:19:50;;;;;;;39.85;24.20;;;;;;;;;;5031995;28;20159;-60
2023/09/13 01:23:02;;;;;;;44.08;25.02;;;;;;;;;;5031279;28;20064;-60
2023/09/13 01:25:39;;;;;;;46.42;24.67;;;;;;;;;;5025931;28;20091;-60
2023/09/13 01:28:31;;;;;;;42.13;24.60;;;;;;;;;;5032216;28;20474;-60
2023/09/13 01:30:57;;;;;;;44.60;24.75;;;;;;;;;;5033144;28;20029;-60
2023/09/13 01:33:23;;;;;;;46.28;25.48;;;;;;;;;;5032373;28;20021;-60
2023/09/13 01:35:48;;;;;;;46.47;25.73;;;;;;;;;;5033873;28;20128;-60
2023/09/13 01:38:14;;;;;;;44.88;26.75;;;;;;;;;;5032359;28;20086;-60
2023/09/13 01:40:42;;;;;;;55.65;28.75;;;;;;;;;;5032558;28;20502;-60
2023/09/13 01:43:08;;;;;;;50.00;27.63;;;;;;;;;;5032228;28;20061;-60
2023/09/13 01:45:34;;;;;;;50.63;27.55;;;;;;;;;;5031512;28;20068;-60
2023/09/13 01:48:03;;;;;;;52.38;28.23;;;;;;;;;;5032321;28;20152;-59
2023/09/13 01:50:30;;;;;;;51.22;29.23;;;;;;;;;;5032731;28;20072;-60
2023/09/13 01:52:56;;;;;;;52.25;29.63;;;;;;;;;;5032595;28;20033;-59
2023/09/13 01:55:21;;;;;;;51.47;29.15;;;;;;;;;;5035524;28;20485;-59
2023/09/13 01:57:46;;;;;;;53.35;29.27;;;;;;;;;;5050999;28;20059;-59
2023/09/13 02:00:12;;;;;;;54.08;29.80;;;;;;;;;;5051749;28;20036;-59
2023/09/13 02:02:38;;;;;;;57.25;30.58;;;;;;;;;;5052343;28;20025;-59
2023/09/13 02:05:04;;;;;;;62.10;30.80;;;;;;;;;;5052059;28;20025;-59
2023/09/13 02:07:29;;;;;;;61.72;30.95;;;;;;;;;;5052137;28;20381;-59
2023/09/13 02:09:54;;;;;;;67.93;32.97;;;;;;;;;;5050859;28;20037;-58
2023/09/13 02:12:23;;;;;;;63.67;31.95;;;;;;;;;;5051280;28;20416;-58
2023/09/13 02:14:48;;;;;;;60.47;31.33;;;;;;;;;;5052230;28;20037;-56
2023/09/13 02:17:14;;;;;;;65.85;32.50;;;;;;;;;;5051213;28;20068;-57
2023/09/13 02:19:39;;;;;;;68.60;32.60;;;;;;;;;;5051692;28;20390;-57
2023/09/13 02:22:06;;;;;;;71.28;33.25;;;;;;;;;;5051791;28;20381;-59
2023/09/13 02:24:32;;;;;;;68.68;32.70;;;;;;;;;;5051913;28;20485;-56
2023/09/13 02:26:58;;;;;;;71.55;33.72;;;;;;;;;;5051958;28;20032;-56
2023/09/13 02:29:24;;;;;;;82.50;34.97;;;;;;;;;;5051256;28;20029;-55
2023/09/13 02:31:50;;;;;;;70.38;32.28;;;;;;;;;;5051985;28;20033;-56
2023/09/13 02:34:15;;;;;;;67.85;31.92;;;;;;;;;;5050998;28;20445;-58
2023/09/13 02:36:41;;;;;;;71.00;32.28;;;;;;;;;;5051826;28;20112;-57
2023/09/13 02:39:29;;;;;;;76.50;32.28;;;;;;;;;;5049917;28;20032;-58
2023/09/13 02:41:55;;;;;;;74.82;32.67;;;;;;;;;;5051794;28;20072;-57
2023/09/13 02:44:20;;;;;;;70.10;31.38;;;;;;;;;;5050039;28;20069;-56
2023/09/13 02:46:46;;;;;;;78.40;33.40;;;;;;;;;;5051869;28;20036;-56
2023/09/13 02:49:11;;;;;;;79.53;31.95;;;;;;;;;;5050771;28;20040;-55
2023/09/13 02:51:36;;;;;;;78.20;32.30;;;;;;;;;;5050372;28;20330;-56
2023/09/13 02:54:02;;;;;;;71.43;32.47;;;;;;;;;;5051869;28;20116;-56
2023/09/13 02:56:27;;;;;;;71.25;31.42;;;;;;;;;;5050850;28;20497;-57
2023/09/13 02:58:53;;;;;;;66.00;31.08;;;;;;;;;;5051648;28;20029;-56
2023/09/13 03:01:18;;;;;;;64.15;30.45;;;;;;;;;;5051039;28;20064;-55
2023/09/13 03:03:43;;;;;;;69.00;30.60;;;;;;;;;;5051529;28;20476;-57
2023/09/13 03:06:15;;;;;;;71.72;31.55;;;;;;;;;;5052713;28;20470;-57
2023/09/13 03:08:41;;;;;;;70.13;32.20;;;;;;;;;;5055672;28;20028;-55
2023/09/13 03:11:15;;;;;;;70.05;32.60;;;;;;;;;;5054307;28;20025;-57
2023/09/13 03:13:41;;;;;;;73.38;32.42;;;;;;;;;;5055509;28;20025;-57
2023/09/13 03:16:16;;;;;;;72.60;31.95;;;;;;;;;;5055182;28;20107;-54
2023/09/13 03:18:43;;;;;;;71.65;32.03;;;;;;;;;;5055223;28;20401;-53
2023/09/13 03:21:10;;;;;;;70.90;31.95;;;;;;;;;;5055037;28;20033;-58
2023/09/13 03:23:41;;;;;;;72.07;32.70;;;;;;;;;;5055254;28;20079;-56
2023/09/13 03:26:17;;;;;;;75.47;32.53;;;;;;;;;;5055758;28;20068;-57
2023/09/13 03:28:45;;;;;;;80.93;32.78;;;;;;;;;;5053386;28;20028;-55
2023/09/13 03:31:12;;;;;;;65.90;30.98;;;;;;;;;;5054576;28;20075;-55
2023/09/13 03:33:39;;;;;;;67.75;31.60;;;;;;;;;;5055092;28;20446;-57
2023/09/13 03:36:06;;;;;;;68.97;30.70;;;;;;;;;;5053896;28;20040;-56
2023/09/13 03:38:31;;;;;;;60.33;29.77;;;;;;;;;;5054105;28;20033;-56
2023/09/13 03:40:57;;;;;;;68.55;29.90;;;;;;;;;;5054961;28;20112;-56
2023/09/13 03:43:22;;;;;;;65.57;29.13;;;;;;;;;;5054386;28;20059;-56
2023/09/13 03:45:48;;;;;;;64.35;29.42;;;;;;;;;;5054806;28;20039;-57
2023/09/13 03:48:13;;;;;;;63.45;29.05;;;;;;;;;;5054064;28;20442;-58
2023/09/13 03:50:38;;;;;;;63.50;28.45;;;;;;;;;;5054482;28;20073;-57
2023/09/13 03:53:04;;;;;;;59.15;28.52;;;;;;;;;;5055040;28;20083;-57
2023/09/13 03:55:29;;;;;;;64.05;28.60;;;;;;;;;;5054086;28;20273;-56
2023/09/13 03:57:54;;;;;;;56.83;27.98;;;;;;;;;;5054805;28;20028;-57
2023/09/13 04:00:20;;;;;;;62.17;27.23;;;;;;;;;;5053982;28;20028;-56
2023/09/13 04:02:45;;;;;;;61.10;27.75;;;;;;;;;;5054838;28;20021;-57
2023/09/13 04:05:11;;;;;;;57.00;27.25;;;;;;;;;;5053964;28;20071;-59
2023/09/13 04:07:36;;;;;;;55.97;26.45;;;;;;;;;;5054837;28;20377;-56
2023/09/13 04:10:02;;;;;;;63.33;27.65;;;;;;;;;;5054826;28;20063;-57
2023/09/13 04:12:27;;;;;;;61.35;27.33;;;;;;;;;;5054069;28;20028;-56
2023/09/13 04:14:53;;;;;;;61.08;27.08;;;;;;;;;;5053416;28;20029;-57
2023/09/13 04:17:18;;;;;;;59.83;26.80;;;;;;;;;;5052689;28;20457;-56
2023/09/13 04:19:44;;;;;;;53.40;26.08;;;;;;;;;;5054581;28;20029;-57
2023/09/13 04:22:10;;;;;;;49.25;24.23;;;;;;;;;;5053311;28;20029;-57
2023/09/13 04:24:36;;;;;;;55.45;26.10;;;;;;;;;;5053331;28;20359;-57
2023/09/13 04:27:01;;;;;;;63.20;26.65;;;;;;;;;;5053953;28;20032;-57
2023/09/13 04:29:28;;;;;;;63.58;28.42;;;;;;;;;;5052194;28;20032;-57
2023/09/13 04:31:53;;;;;;;64.78;28.60;;;;;;;;;;5053935;28;20029;-56
2023/09/13 04:34:19;;;;;;;58.58;28.38;;;;;;;;;;5053571;28;20025;-56
2023/09/13 04:36:44;;;;;;;54.65;27.92;;;;;;;;;;5052514;28;20060;-57
2023/09/13 04:39:09;;;;;;;54.00;26.85;;;;;;;;;;5053680;28;20482;-58
2023/09/13 04:41:35;;;;;;;57.75;27.50;;;;;;;;;;5053005;28;20029;-57
2023/09/13 04:44:00;;;;;;;52.45;25.98;;;;;;;;;;5054174;28;20492;-56
2023/09/13 04:46:26;;;;;;;49.95;24.83;;;;;;;;;;5053301;28;20044;-58
2023/09/13 04:48:51;;;;;;;44.28;23.95;;;;;;;;;;5053779;28;20600;-57
2023/09/13 04:51:16;;;;;;;47.97;24.70;;;;;;;;;;5053081;28;20036;-57
2023/09/13 04:53:42;;;;;;;47.97;24.48;;;;;;;;;;5053773;28;20424;-58
2023/09/13 04:56:08;;;;;;;45.95;23.67;;;;;;;;;;5052511;28;20031;-57
2023/09/13 04:58:33;;;;;;;43.78;23.00;;;;;;;;;;5053413;28;20029;-58
2023/09/13 05:00:58;;;;;;;43.05;22.13;;;;;;;;;;5052214;28;20453;-58
2023/09/13 05:03:24;;;;;;;48.50;22.70;;;;;;;;;;5052734;28;20036;-58
2023/09/13 05:05:49;;;;;;;43.33;23.42;;;;;;;;;;5053462;28;20031;-59
2023/09/13 05:08:15;;;;;;;46.45;22.95;;;;;;;;;;5053025;28;20035;-59
2023/09/13 05:10:43;;;;;;;43.58;23.00;;;;;;;;;;5052065;28;20025;-57
2023/09/13 05:13:12;;;;;;;49.30;25.02;;;;;;;;;;5053441;28;20053;-54
2023/09/13 05:15:47;;;;;;;49.72;24.60;;;;;;;;;;5052099;28;20040;-56
2023/09/13 05:18:12;;;;;;;52.08;25.38;;;;;;;;;;5053689;28;20025;-57
2023/09/13 05:20:38;;;;;;;48.28;24.92;;;;;;;;;;5052676;28;20031;-54
2023/09/13 05:23:04;;;;;;;51.50;25.38;;;;;;;;;;5053175;28;20027;-57
2023/09/13 05:25:29;;;;;;;50.35;25.15;;;;;;;;;;5051239;28;20025;-53
2023/09/13 05:27:55;;;;;;;56.00;26.48;;;;;;;;;;5053062;28;20521;-56
2023/09/13 05:30:21;;;;;;;52.22;24.00;;;;;;;;;;5052248;28;20044;-52
2023/09/13 05:32:47;;;;;;;49.95;23.05;;;;;;;;;;5053044;28;20060;-54
2023/09/13 05:35:12;;;;;;;52.47;24.70;;;;;;;;;;5052994;28;20082;-54
2023/09/13 05:37:37;;;;;;;49.35;23.17;;;;;;;;;;5051876;28;20029;-56
2023/09/13 05:40:06;;;;;;;52.05;24.05;;;;;;;;;;5052432;28;20025;-53
2023/09/13 05:42:35;;;;;;;50.05;23.65;;;;;;;;;;5052212;28;20037;-53
2023/09/13 05:45:01;;;;;;;47.15;23.63;;;;;;;;;;5052301;28;20036;-55
2023/09/13 05:47:26;;;;;;;46.95;22.90;;;;;;;;;;5051345;28;20033;-51
2023/09/13 05:49:55;;;;;;;48.15;22.60;;;;;;;;;;5052242;28;20032;-52
2023/09/13 05:52:20;;;;;;;47.72;23.00;;;;;;;;;;5051971;28;20040;-53
2023/09/13 05:54:45;;;;;;;50.80;22.73;;;;;;;;;;5052403;28;20034;-56
2023/09/13 05:57:11;;;;;;;50.10;23.05;;;;;;;;;;5052602;28;20438;-59
2023/09/13 05:59:39;;;;;;;51.92;23.88;;;;;;;;;;5051205;28;20033;-57
2023/09/13 06:02:06;;;;;;;53.50;23.80;;;;;;;;;;5052007;28;20104;-68
2023/09/13 06:04:32;;;;;;;52.55;23.00;;;;;;;;;;5051070;28;20033;-60
2023/09/13 06:06:57;;;;;;;50.70;24.17;;;;;;;;;;5052219;28;20059;-61
2023/09/13 06:09:22;;;;;;;54.80;24.77;;;;;;;;;;5051604;28;20037;-61
2023/09/13 06:11:48;;;;;;;59.97;25.42;;;;;;;;;;5052228;28;20068;-60
2023/09/13 06:14:14;;;;;;;68.28;27.25;;;;;;;;;;5052390;28;20462;-56
2023/09/13 06:16:39;;;;;;;70.35;27.98;;;;;;;;;;5051400;28;20473;-56
2023/09/13 06:19:05;;;;;;;74.50;30.63;;;;;;;;;;5051711;28;20470;-57
2023/09/13 06:21:30;;;;;;;77.43;30.40;;;;;;;;;;5050791;28;20387;-57
2023/09/13 06:23:56;;;;;;;73.25;29.48;;;;;;;;;;5051864;28;20503;-57
2023/09/13 06:26:22;;;;;;;74.05;31.25;;;;;;;;;;5050958;28;20461;-56
2023/09/13 06:28:47;;;;;;;79.20;32.38;;;;;;;;;;5052450;28;20025;-54
2023/09/13 06:31:15;;;;;;;87.68;34.00;;;;;;;;;;5051667;28;20047;-54
2023/09/13 06:33:40;;;;;;;78.90;31.75;;;;;;;;;;5051014;28;20033;-57
2023/09/13 06:36:06;;;;;;;85.15;34.15;;;;;;;;;;5050768;28;20120;-57
2023/09/13 06:38:31;;;;;;;93.63;35.33;;;;;;;;;;5051503;28;20483;-60
2023/09/13 06:40:57;;;;;;;99.88;37.25;;;;;;;;;;5055207;28;20033;-58
2023/09/13 06:43:22;;;;;;;98.85;37.67;;;;;;;;;;5056818;28;20029;-57
2023/09/13 06:45:48;;;;;;;108.70;36.65;;;;;;;;;;5058518;28;20574;-55
2023/09/13 06:48:18;;;;;;;99.60;37.00;;;;;;;;;;5058574;28;20021;-57
2023/09/13 06:50:44;;;;;;;108.85;39.63;;;;;;;;;;5057898;28;20032;-58
2023/09/13 06:53:09;;;;;;;102.38;38.85;;;;;;;;;;5058618;28;20033;-57
2023/09/13 06:55:35;;;;;;;102.45;39.42;;;;;;;;;;5058009;28;20465;-58
2023/09/13 06:58:04;;;;;;;102.82;39.10;;;;;;;;;;5058759;28;20450;-57
2023/09/13 07:00:29;;;;;;;96.82;36.72;;;;;;;;;;5056409;28;20048;-58
2023/09/13 07:02:54;;;;;;;94.00;35.80;;;;;;;;;;5058578;28;20087;-55
2023/09/13 07:05:20;;;;;;;90.18;35.13;;;;;;;;;;5058787;28;20430;-57
2023/09/13 07:07:45;;;;;;;100.10;37.28;;;;;;;;;;5057832;28;20036;-58
2023/09/13 07:10:12;;;;;;;84.93;36.35;;;;;;;;;;5058405;28;20418;-57
2023/09/13 07:12:37;;;;;;;79.88;32.67;;;;;;;;;;5057762;28;20025;-57
2023/09/13 07:15:07;;;;;;;65.63;30.98;;;;;;;;;;5058352;28;20112;-57
2023/09/13 07:17:32;;;;;;;67.18;32.00;;;;;;;;;;5057711;28;20063;-57
2023/09/13 07:19:57;;;;;;;69.53;31.45;;;;;;;;;;5058058;28;20111;-56
2023/09/13 07:22:23;;;;;;;70.95;31.33;;;;;;;;;;5058072;28;20517;-59
2023/09/13 07:24:49;;;;;;;72.30;32.00;;;;;;;;;;5057852;28;20373;-58
2023/09/13 07:27:14;;;;;;;77.97;33.17;;;;;;;;;;5058360;28;20029;-59
2023/09/13 07:29:40;;;;;;;74.38;32.03;;;;;;;;;;5056416;28;20118;-60
2023/09/13 07:32:05;;;;;;;80.43;34.17;;;;;;;;;;5058101;28;20150;-59
2023/09/13 07:34:31;;;;;;;69.07;30.70;;;;;;;;;;5057720;28;20044;-60
2023/09/13 07:36:56;;;;;;;66.70;31.08;;;;;;;;;;5058000;28;20448;-60
2023/09/13 07:39:22;;;;;;;68.72;31.73;;;;;;;;;;5058185;28;20541;-61
2023/09/13 07:41:47;;;;;;;72.55;32.03;;;;;;;;;;5057443;28;20032;-60
2023/09/13 07:44:12;;;;;;;74.55;31.25;;;;;;;;;;5058078;28;20432;-63
2023/09/13 07:46:38;;;;;;;65.78;30.10;;;;;;;;;;5057752;28;20035;-60
2023/09/13 07:49:04;;;;;;;70.63;31.00;;;;;;;;;;5058127;28;20032;-60
2023/09/13 07:51:30;;;;;;;71.05;29.83;;;;;;;;;;5056288;28;20390;-60
2023/09/13 07:54:03;;;;;;;73.10;29.73;;;;;;;;;;5052877;28;20029;-60
2023/09/13 07:56:29;;;;;;;81.05;31.00;;;;;;;;;;5054016;28;20397;-60
2023/09/13 07:58:55;;;;;;;70.20;30.15;;;;;;;;;;5053551;28;20129;-60
2023/09/13 08:01:20;;;;;;;70.30;30.70;;;;;;;;;;5054724;28;20029;-60
2023/09/13 08:03:46;;;;;;;66.20;29.73;;;;;;;;;;5054251;28;20075;-60
2023/09/13 08:06:11;;;;;;;63.28;31.15;;;;;;;;;;5054361;28;20029;-60
2023/09/13 08:08:36;;;;;;;63.15;29.40;;;;;;;;;;5053082;28;20033;-60
2023/09/13 08:11:03;;;;;;;59.90;28.52;;;;;;;;;;5052923;28;20082;-60
2023/09/13 08:13:29;;;;;;;54.50;27.90;;;;;;;;;;5053812;28;20473;-60
2023/09/13 08:15:54;;;;;;;54.20;26.90;;;;;;;;;;5054117;28;20072;-60
2023/09/13 08:18:20;;;;;;;62.05;29.73;;;;;;;;;;5054547;28;20033;-60
2023/09/13 08:20:46;;;;;;;58.47;27.95;;;;;;;;;;5053417;28;20032;-60
2023/09/13 08:23:11;;;;;;;54.63;27.95;;;;;;;;;;5054636;28;20079;-58
2023/09/13 08:25:36;;;;;;;53.00;27.30;;;;;;;;;;5053679;28;20537;-58
2023/09/13 08:28:03;;;;;;;52.05;26.08;;;;;;;;;;5054632;28;20424;-56
2023/09/13 08:30:29;;;;;;;52.60;26.40;;;;;;;;;;5053630;28;20068;-57
2023/09/13 08:32:55;;;;;;;52.08;28.15;;;;;;;;;;5054053;28;20056;-57
2023/09/13 08:35:20;;;;;;;52.38;28.17;;;;;;;;;;5054440;28;20069;-57
2023/09/13 08:37:47;;;;;;;54.05;27.95;;;;;;;;;;5053517;28;20080;-56
2023/09/13 08:40:13;;;;;;;47.35;27.27;;;;;;;;;;5054328;28;20032;-55
2023/09/13 08:42:40;;;;;;;51.65;27.17;;;;;;;;;;5053311;28;20032;-56
2023/09/13 08:45:06;;;;;;;46.03;26.05;;;;;;;;;;5053771;28;20450;-54
2023/09/13 08:47:36;;;;;;;50.33;26.02;;;;;;;;;;5053580;28;20112;-53
2023/09/13 08:50:03;;;;;;;47.95;25.85;;;;;;;;;;5053800;28;20032;-54
2023/09/13 08:52:30;;;;;;;43.47;24.52;;;;;;;;;;5053633;28;20170;-56
2023/09/13 08:54:56;;;;;;;46.55;25.55;;;;;;;;;;5054478;28;20025;-55
2023/09/13 08:57:24;;;;;;;43.53;25.45;;;;;;;;;;5054139;28;20090;-56
2023/09/13 08:59:50;;;;;;;44.30;24.95;;;;;;;;;;5052847;28;20059;-53
2023/09/13 09:02:21;;;;;;;40.28;24.30;;;;;;;;;;5053306;28;20474;-56
2023/09/13 09:04:48;;;;;;;45.42;25.05;;;;;;;;;;5052592;28;20021;-52
2023/09/13 09:07:14;;;;;;;42.85;24.67;;;;;;;;;;5053441;28;20111;-55
2023/09/13 09:09:41;;;;;;;45.00;25.38;;;;;;;;;;5052679;28;20029;-53
2023/09/13 09:12:08;;;;;;;42.00;22.80;;;;;;;;;;5053039;28;20512;-54
2023/09/13 09:14:35;;;;;;;42.83;23.45;;;;;;;;;;5052638;28;20040;-55
2023/09/13 09:17:02;;;;;;;42.45;24.00;;;;;;;;;;5053359;28;20494;-53
2023/09/13 09:19:29;;;;;;;42.13;23.48;;;;;;;;;;5053273;28;20032;-51
2023/09/13 09:21:58;;;;;;;39.17;23.30;;;;;;;;;;5052828;28;20027;-56
2023/09/13 09:24:24;;;;;;;39.40;22.63;;;;;;;;;;5053160;28;20031;-51
2023/09/13 09:26:50;;;;;;;42.28;23.30;;;;;;;;;;5051408;28;20325;-56
2023/09/13 09:29:18;;;;;;;39.70;22.83;;;;;;;;;;5053064;28;20120;-55
2023/09/13 09:31:43;;;;;;;38.17;22.08;;;;;;;;;;5052352;28;20025;-56
2023/09/13 09:34:10;;;;;;;37.65;23.30;;;;;;;;;;5051923;28;20035;-56
2023/09/13 09:36:43;;;;;;;37.35;22.30;;;;;;;;;;5051045;28;20029;-56
2023/09/13 09:39:09;;;;;;;35.28;22.02;;;;;;;;;;5053040;28;20025;-56
2023/09/13 09:41:36;;;;;;;35.00;22.00;;;;;;;;;;5052248;28;20021;-53
2023/09/13 09:44:03;;;;;;;31.83;20.60;;;;;;;;;;5052488;28;20033;-57
2023/09/13 09:46:30;;;;;;;35.33;21.08;;;;;;;;;;5051345;28;20435;-54
2023/09/13 09:48:55;;;;;;;35.10;22.02;;;;;;;;;;5052153;28;20029;-57
2023/09/13 09:51:21;;;;;;;20.42;12.75;;;;;;;;;;5052317;28;20036;-57
2023/09/13 09:53:47;;;;;;;18.90;10.40;;;;;;;;;;5052128;28;20044;-58
2023/09/13 09:56:14;;;;;;;15.40;6.50;;;;;;;;;;5052705;28;20569;-59
2023/09/13 09:58:40;;;;;;;10.25;5.75;;;;;;;;;;5051989;28;20025;-59
2023/09/13 10:01:06;;;;;;;6.47;4.10;;;;;;;;;;5051330;28;20128;-59
2023/09/13 10:03:33;;;;;;;11.10;4.70;;;;;;;;;;5052048;28;20241;-60
2023/09/13 10:06:15;;;;;;;6.07;3.38;;;;;;;;;;5052470;28;20029;-58
2023/09/13 10:08:41;;;;;;;8.15;3.55;;;;;;;;;;5051827;28;20081;-56
2023/09/13 10:11:09;;;;;;;6.88;3.75;;;;;;;;;;5052232;28;20384;-59
2023/09/13 10:13:35;;;;;;;6.10;3.50;;;;;;;;;;5051593;28;20037;-59
2023/09/13 10:16:01;;;;;;;10.38;3.92;;;;;;;;;;5049959;28;20523;-57
2023/09/13 10:18:32;;;;;;;5.78;3.58;;;;;;;;;;5052431;28;20029;-57
2023/09/13 10:20:58;;;;;;;7.43;3.70;;;;;;;;;;5051696;28;20496;-54
2023/09/13 10:23:38;;;;;;;7.53;3.40;;;;;;;;;;5050841;28;20115;-58
2023/09/13 10:26:09;;;;;;;5.85;3.67;;;;;;;;;;5052199;28;20131;-58
2023/09/13 10:28:41;;;;;;;6.32;3.78;;;;;;;;;;5051515;28;20036;-58
2023/09/13 10:31:17;;;;;;;8.23;4.20;;;;;;;;;;5052175;28;20029;-58
2023/09/13 10:33:49;;;;;;;6.00;3.55;;;;;;;;;;5049952;28;20139;-56
2023/09/13 10:36:27;;;;;;;8.88;3.67;;;;;;;;;;5052350;28;20052;-57
2023/09/13 10:39:32;;;;;;;7.50;3.63;;;;;;;;;;5051294;28;20389;-57
2023/09/13 10:42:00;;;;;;;6.97;4.20;;;;;;;;;;5050545;28;20032;-55
2023/09/13 10:44:25;;;;;;;5.65;2.92;;;;;;;;;;5051911;28;20033;-58
2023/09/13 10:46:51;;;;;;;7.05;3.28;;;;;;;;;;5051336;28;20032;-59
2023/09/13 10:49:17;;;;;;;4.68;3.03;;;;;;;;;;5051913;28;20025;-59
2023/09/13 10:51:43;;;;;;;7.18;3.08;;;;;;;;;;5051158;28;20033;-59
2023/09/13 10:54:09;;;;;;;4.93;2.65;;;;;;;;;;5051807;28;20099;-59
2023/09/13 10:56:35;;;;;;;4.47;2.80;;;;;;;;;;5051856;28;20527;-60
2023/09/13 10:59:01;;;;;;;3.92;2.30;;;;;;;;;;5051664;28;20079;-60
2023/09/13 11:01:27;;;;;;;4.05;2.60;;;;;;;;;;5051532;28;20033;-60
2023/09/13 11:03:54;;;;;;;3.30;2.20;;;;;;;;;;5050709;28;20389;-60
2023/09/13 11:06:22;;;;;;;2.70;1.95;;;;;;;;;;5051703;28;20033;-60
2023/09/13 11:08:47;;;;;;;3.85;2.10;;;;;;;;;;5051114;28;20036;-60
2023/09/13 11:11:18;;;;;;;4.35;2.13;;;;;;;;;;5051748;28;20029;-60
2023/09/13 11:13:52;;;;;;;3.70;2.10;;;;;;;;;;5050876;28;20044;-60
2023/09/13 11:16:18;;;;;;;3.97;2.45;;;;;;;;;;5051217;28;20482;-60
2023/09/13 11:18:49;;;;;;;4.35;2.20;;;;;;;;;;5050957;28;20032;-60
2023/09/13 11:21:19;;;;;;;4.07;2.17;;;;;;;;;;5051226;28;20025;-60
2023/09/13 11:23:49;;;;;;;2.92;1.95;;;;;;;;;;5049564;28;20033;-64
2023/09/13 11:26:15;;;;;;;5.55;2.33;;;;;;;;;;5051890;28;20124;-59
2023/09/13 11:28:46;;;;;;;5.32;2.00;;;;;;;;;;5054958;28;20100;-57
2023/09/13 11:31:17;;;;;;;3.33;1.70;;;;;;;;;;5055498;28;20040;-57
2023/09/13 11:33:58;;;;;;;2.97;1.52;;;;;;;;;;5054422;28;20393;-58
2023/09/13 11:36:32;;;;;;;2.60;1.60;;;;;;;;;;5055310;28;20086;-57
2023/09/13 11:39:01;;;;;;;3.65;1.70;;;;;;;;;;5053472;28;20483;-56
2023/09/13 11:41:26;;;;;;;2.75;1.60;;;;;;;;;;5055168;28;20107;-58
2023/09/13 11:43:52;;;;;;;2.75;1.50;;;;;;;;;;5054201;28;20056;-58
2023/09/13 11:46:18;;;;;;;4.18;1.63;;;;;;;;;;5054857;28;20032;-57
2023/09/13 11:48:49;;;;;;;2.08;1.50;;;;;;;;;;5054446;28;20111;-54
2023/09/13 11:51:21;;;;;;;3.22;1.63;;;;;;;;;;5055200;28;20025;-56
2023/09/13 11:53:50;;;;;;;4.35;1.67;;;;;;;;;;5054091;28;20036;-56
2023/09/13 11:56:32;;;;;;;3.92;1.90;;;;;;;;;;5054975;28;20033;-53
2023/09/13 11:58:58;;;;;;;2.55;1.70;;;;;;;;;;5054309;28;20032;-53
2023/09/13 12:01:24;;;;;;;3.45;1.65;;;;;;;;;;5054725;28;20029;-58
2023/09/13 12:03:51;;;;;;;2.78;1.60;;;;;;;;;;5053958;28;20036;-57
2023/09/13 12:06:17;;;;;;;3.55;1.73;;;;;;;;;;5054672;28;20029;-57
2023/09/13 12:08:42;;;;;;;8.20;2.00;;;;;;;;;;5053802;28;20393;-57
2023/09/13 12:11:08;;;;;;;3.33;1.80;;;;;;;;;;5054395;28;20029;-54
2023/09/13 12:13:47;;;;;;;3.78;1.90;;;;;;;;;;5054480;28;20040;-57
2023/09/13 12:16:17;;;;;;;3.72;1.95;;;;;;;;;;5053228;28;20053;-56
2023/09/13 12:18:43;;;;;;;3.33;1.60;;;;;;;;;;5053994;28;20519;-58
2023/09/13 12:21:10;;;;;;;3.75;1.90;;;;;;;;;;5054620;28;20036;-55
2023/09/13 12:23:37;;;;;;;4.78;1.98;;;;;;;;;;5054056;28;20044;-57
2023/09/13 12:26:09;;;;;;;4.72;1.73;;;;;;;;;;5054127;28;20041;-54
2023/09/13 12:28:39;;;;;;;4.65;1.70;;;;;;;;;;5054832;28;20037;-55
2023/09/13 12:31:09;;;;;;;4.65;1.90;;;;;;;;;;5053631;28;20040;-57
2023/09/13 12:33:36;;;;;;;4.82;1.90;;;;;;;;;;5052781;28;20037;-56
2023/09/13 12:36:03;;;;;;;3.67;1.80;;;;;;;;;;5053685;28;20037;-57
2023/09/13 12:38:41;;;;;;;3.30;1.70;;;;;;;;;;5053446;28;20031;-57
2023/09/13 12:41:11;;;;;;;4.45;2.00;;;;;;;;;;5054409;28;20033;-52
2023/09/13 12:43:39;;;;;;;2.63;1.60;;;;;;;;;;5054105;28;20021;-57
2023/09/13 12:46:06;;;;;;;3.45;1.90;;;;;;;;;;5051762;28;20039;-55
2023/09/13 12:48:32;;;;;;;3.88;1.80;;;;;;;;;;5052705;28;20104;-55
2023/09/13 12:51:01;;;;;;;3.97;1.70;;;;;;;;;;5052024;28;20446;-56
2023/09/13 12:53:33;;;;;;;5.10;1.70;;;;;;;;;;5053389;28;20082;-56
2023/09/13 12:55:59;;;;;;;4.72;1.75;;;;;;;;;;5053111;28;20025;-58
2023/09/13 12:58:25;;;;;;;4.07;1.85;;;;;;;;;;5053807;28;20462;-55
2023/09/13 13:00:55;;;;;;;3.83;1.58;;;;;;;;;;5034974;28;20021;-57
2023/09/13 13:03:24;;;;;;;3.22;1.63;;;;;;;;;;5053610;28;20028;-57
2023/09/13 13:05:51;;;;;;;4.60;1.60;;;;;;;;;;5052964;28;20488;-58
2023/09/13 13:08:17;;;;;;;3.28;1.60;;;;;;;;;;5053885;28;20068;-56
2023/09/13 13:10:55;;;;;;;3.25;1.42;;;;;;;;;;5053501;28;20484;-57
2023/09/13 13:13:22;;;;;;;2.53;1.40;;;;;;;;;;5053331;28;20041;-56
2023/09/13 13:15:48;;;;;;;3.28;1.60;;;;;;;;;;5052437;28;20045;-58
2023/09/13 13:18:16;;;;;;;3.40;1.50;;;;;;;;;;5052009;28;20033;-56
2023/09/13 13:20:47;;;;;;;4.10;1.50;;;;;;;;;;5053263;28;20033;-59
2023/09/13 13:23:12;;;;;;;3.90;1.60;;;;;;;;;;5052975;28;20405;-57
2023/09/13 13:25:38;;;;;;;1.85;1.30;;;;;;;;;;5053129;28;20024;-55
2023/09/13 13:28:03;;;;;;;2.72;1.40;;;;;;;;;;5052441;28;20439;-55
2023/09/13 13:30:29;;;;;;;3.90;1.40;;;;;;;;;;5053401;28;20315;-56
2023/09/13 13:32:54;;;;;;;4.00;1.42;;;;;;;;;;5052484;28;20381;-56
2023/09/13 13:35:20;;;;;;;3.55;1.40;;;;;;;;;;5051601;28;20032;-57
2023/09/13 13:37:46;;;;;;;4.43;1.40;;;;;;;;;;5051006;28;20059;-57
2023/09/13 13:40:11;;;;;;;2.30;1.30;;;;;;;;;;5052979;28;20029;-55
2023/09/13 13:42:37;;;;;;;2.50;1.17;;;;;;;;;;5052989;28;20032;-56
2023/09/13 13:45:03;;;;;;;2.78;1.30;;;;;;;;;;5051829;28;20040;-57
2023/09/13 13:47:28;;;;;;;4.75;1.25;;;;;;;;;;5051639;28;20029;-55
2023/09/13 13:49:54;;;;;;;2.08;1.02;;;;;;;;;;5050144;28;20476;-55
2023/09/13 13:52:20;;;;;;;3.55;1.40;;;;;;;;;;5052342;28;20390;-57
2023/09/13 13:54:46;;;;;;;4.03;1.70;;;;;;;;;;5051354;28;20029;-57
2023/09/13 13:57:13;;;;;;;5.10;1.60;;;;;;;;;;5052642;28;20029;-56
2023/09/13 13:59:39;;;;;;;6.68;1.80;;;;;;;;;;5052611;28;20025;-55
2023/09/13 14:02:04;;;;;;;3.88;2.13;;;;;;;;;;5052041;28;20029;-54
2023/09/13 14:04:32;;;;;;;3.85;1.80;;;;;;;;;;5052382;28;20512;-56
2023/09/13 14:06:57;;;;;;;4.68;2.20;;;;;;;;;;5051482;28;20436;-56
2023/09/13 14:09:23;;;;;;;4.82;2.17;;;;;;;;;;5052559;28;20093;-57
2023/09/13 14:11:48;;;;;;;3.60;2.20;;;;;;;;;;5052466;28;20039;-55
2023/09/13 14:14:18;;;;;;;4.38;2.30;;;;;;;;;;5052596;28;20033;-56
2023/09/13 14:16:43;;;;;;;3.95;2.20;;;;;;;;;;5052164;28;20072;-56
2023/09/13 14:19:11;;;;;;;3.85;2.42;;;;;;;;;;5051551;28;20470;-56
2023/09/13 14:21:36;;;;;;;3.83;2.30;;;;;;;;;;5051858;28;20029;-54
2023/09/13 14:24:04;;;;;;;3.67;2.30;;;;;;;;;;5051405;28;20033;-55